createdAt,value
2023-04-17T00:00:38.817Z,11.80
2023-04-17T00:03:07.231Z,11.80
2023-04-17T00:05:36.831Z,11.80
2023-04-17T00:08:04.886Z,11.70
2023-04-17T00:10:33.111Z,11.70
2023-04-17T00:13:01.160Z,11.70
2023-04-17T00:15:29.381Z,11.60
2023-04-17T00:17:57.470Z,11.50
2023-04-17T00:20:25.577Z,11.50
2023-04-17T00:22:55.049Z,11.50
2023-04-17T00:25:23.310Z,11.50
2023-04-17T00:27:51.672Z,11.50
2023-04-17T00:30:19.837Z,11.50
2023-04-17T00:32:47.937Z,11.50
2023-04-17T00:35:16.395Z,11.40
2023-04-17T00:37:44.474Z,11.40
2023-04-17T00:40:14.806Z,11.40
2023-04-17T00:42:42.906Z,11.40
2023-04-17T00:45:11.804Z,11.40
2023-04-17T00:47:40.384Z,11.40
2023-04-17T00:50:09.788Z,11.30
2023-04-17T00:52:37.996Z,11.30
2023-04-17T00:55:07.024Z,11.30
2023-04-17T00:57:36.484Z,11.30
2023-04-17T01:00:05.820Z,11.30
2023-04-17T01:02:34.125Z,11.30
2023-04-17T01:05:02.630Z,11.20
2023-04-17T01:07:31.617Z,11.20
2023-04-17T01:10:00.792Z,11.20
2023-04-17T01:12:29.502Z,11.20
2023-04-17T01:14:59.153Z,11.20
2023-04-17T01:17:27.845Z,11.20
2023-04-17T01:19:56.314Z,11.10
2023-04-17T01:22:24.500Z,11.10
2023-04-17T01:24:53.960Z,11.10
2023-04-17T01:27:22.510Z,11.10
2023-04-17T01:29:50.845Z,11.10
2023-04-17T01:32:19.083Z,11.00
2023-04-17T01:34:47.117Z,11.00
2023-04-17T01:37:15.219Z,11.00
2023-04-17T01:39:43.300Z,11.00
2023-04-17T01:42:12.783Z,11.00
2023-04-17T01:44:40.841Z,11.00
2023-04-17T01:47:08.979Z,11.00
2023-04-17T01:49:37.078Z,10.90
2023-04-17T01:52:05.164Z,10.90
2023-04-17T01:54:33.250Z,10.90
2023-04-17T01:57:01.331Z,10.90
2023-04-17T01:59:30.748Z,10.80
2023-04-17T02:01:58.919Z,10.80
2023-04-17T02:04:27.361Z,10.80
2023-04-17T02:06:55.518Z,10.80
2023-04-17T02:09:23.650Z,10.80
2023-04-17T02:11:51.737Z,10.70
2023-04-17T02:14:19.969Z,10.70
2023-04-17T02:16:50.167Z,10.70
2023-04-17T02:19:18.272Z,10.60
2023-04-17T02:21:46.323Z,10.60
2023-04-17T02:24:14.445Z,10.60
2023-04-17T02:26:42.518Z,10.60
2023-04-17T02:29:10.873Z,10.50
2023-04-17T02:31:41.449Z,10.50
2023-04-17T02:34:10.942Z,10.50
2023-04-17T02:36:39.046Z,10.50
2023-04-17T02:39:07.310Z,10.50
2023-04-17T02:41:35.342Z,10.50
2023-04-17T02:44:04.292Z,10.40
2023-04-17T02:46:33.536Z,10.40
2023-04-17T02:49:01.692Z,10.40
2023-04-17T02:51:31.188Z,10.40
2023-04-17T02:53:59.261Z,10.40
2023-04-17T02:56:27.322Z,10.40
2023-04-17T02:58:55.392Z,10.30
2023-04-17T03:01:23.540Z,10.30
2023-04-17T03:03:52.512Z,10.30
2023-04-17T03:06:21.635Z,10.30
2023-04-17T03:08:51.551Z,10.30
2023-04-17T03:11:19.696Z,10.30
2023-04-17T03:13:47.766Z,10.30
2023-04-17T03:16:15.942Z,10.20
2023-04-17T03:18:44.026Z,10.30
2023-04-17T03:21:12.166Z,10.30
2023-04-17T03:23:41.458Z,10.30
2023-04-17T03:26:10.961Z,10.30
2023-04-17T03:28:39.020Z,10.20
2023-04-17T03:31:07.358Z,10.20
2023-04-17T03:33:35.438Z,10.20
2023-04-17T03:36:03.696Z,10.20
2023-04-17T03:38:31.785Z,10.20
2023-04-17T03:40:59.983Z,10.20
2023-04-17T03:43:29.500Z,10.20
2023-04-17T03:45:57.558Z,10.10
2023-04-17T03:48:25.720Z,10.20
2023-04-17T03:50:53.878Z,10.10
2023-04-17T03:53:22.036Z,10.20
2023-04-17T03:55:50.132Z,10.20
2023-04-17T03:58:18.161Z,10.20
2023-04-17T04:00:48.505Z,10.20
2023-04-17T04:03:16.810Z,10.20
2023-04-17T04:05:44.932Z,10.20
2023-04-17T04:08:13.608Z,10.30
2023-04-17T04:10:44.195Z,10.30
2023-04-17T04:13:12.258Z,10.30
2023-04-17T04:15:40.705Z,10.30
2023-04-17T04:18:10.428Z,10.30
2023-04-17T04:20:38.558Z,10.30
2023-04-17T04:23:06.750Z,10.30
2023-04-17T04:25:36.599Z,10.30
2023-04-17T04:28:05.554Z,10.30
2023-04-17T04:30:35.906Z,10.30
2023-04-17T04:33:05.664Z,10.30
2023-04-17T04:35:35.409Z,10.30
2023-04-17T04:38:04.939Z,10.30
2023-04-17T04:40:38.247Z,10.30
2023-04-17T04:43:06.822Z,10.30
2023-04-17T04:45:34.904Z,10.30
2023-04-17T04:48:03.342Z,10.30
2023-04-17T04:50:31.542Z,10.40
2023-04-17T04:53:01.154Z,10.40
2023-04-17T04:55:30.714Z,10.40
2023-04-17T04:57:58.885Z,10.40
2023-04-17T05:00:27.144Z,10.50
2023-04-17T05:02:55.587Z,10.50
2023-04-17T05:05:23.815Z,10.50
2023-04-17T05:07:53.517Z,10.50
2023-04-17T05:10:23.005Z,10.60
2023-04-17T05:12:51.107Z,10.60
2023-04-17T05:15:19.143Z,10.60
2023-04-17T05:17:47.252Z,10.70
2023-04-17T05:20:15.417Z,10.70
2023-04-17T05:22:43.529Z,10.80
2023-04-17T05:25:11.633Z,10.80
2023-04-17T05:27:41.059Z,10.80
2023-04-17T05:30:10.464Z,10.90
2023-04-17T05:32:38.765Z,10.90
2023-04-17T05:35:07.534Z,10.90
2023-04-17T05:37:35.600Z,11.00
2023-04-17T05:40:06.848Z,11.00
2023-04-17T05:42:35.357Z,11.10
2023-04-17T05:45:05.254Z,11.20
2023-04-17T05:47:33.399Z,11.20
2023-04-17T05:50:01.576Z,11.30
2023-04-17T05:52:29.649Z,11.40
2023-04-17T05:54:57.685Z,11.40
2023-04-17T05:57:25.700Z,11.50
2023-04-17T05:59:53.756Z,11.50
2023-04-17T06:02:23.582Z,11.60
2023-04-17T06:04:52.114Z,11.60
2023-04-17T06:07:20.848Z,11.70
2023-04-17T06:09:48.888Z,11.70
2023-04-17T06:12:16.941Z,11.80
2023-04-17T06:14:45.019Z,11.80
2023-04-17T06:17:13.337Z,11.90
2023-04-17T06:19:42.864Z,11.90
2023-04-17T06:22:10.980Z,11.90
2023-04-17T06:24:39.287Z,12.00
2023-04-17T06:27:07.394Z,12.00
2023-04-17T06:29:35.494Z,12.00
2023-04-17T06:32:03.605Z,12.10
2023-04-17T06:34:32.042Z,12.10
2023-04-17T06:37:01.782Z,12.10
2023-04-17T06:39:31.676Z,12.10
2023-04-17T06:41:59.845Z,12.20
2023-04-17T06:44:27.898Z,12.20
2023-04-17T06:46:56.075Z,12.20
2023-04-17T06:49:24.097Z,12.30
2023-04-17T06:51:52.380Z,12.30
2023-04-17T06:54:21.803Z,12.30
2023-04-17T06:56:49.836Z,12.40
2023-04-17T06:59:18.530Z,12.40
2023-04-17T07:01:46.727Z,12.40
2023-04-17T07:04:14.975Z,12.40
2023-04-17T07:06:43.110Z,12.40
2023-04-17T07:09:11.299Z,12.40
2023-04-17T07:11:40.992Z,12.50
2023-04-17T07:14:28.277Z,12.50
2023-04-17T07:19:47.886Z,12.50
2023-04-17T07:22:16.089Z,12.50
2023-04-17T07:24:44.264Z,12.50
2023-04-17T07:27:13.761Z,12.50
2023-04-17T07:29:41.862Z,12.50
2023-04-17T07:32:09.900Z,12.50
2023-04-17T07:34:41.278Z,12.50
2023-04-17T07:37:09.342Z,12.50
2023-04-17T07:39:37.552Z,12.60
2023-04-17T07:42:08.802Z,12.60
2023-04-17T07:44:39.093Z,12.60
2023-04-17T07:47:07.216Z,12.60
2023-04-17T07:49:35.462Z,12.60
2023-04-17T07:52:03.581Z,12.60
2023-04-17T07:54:32.525Z,12.60
2023-04-17T07:57:03.324Z,12.70
2023-04-17T07:59:31.497Z,12.70
2023-04-17T08:02:01.221Z,12.70
2023-04-17T08:04:29.572Z,12.80
2023-04-17T08:06:57.868Z,12.80
2023-04-17T08:09:25.977Z,12.80
2023-04-17T08:11:58.053Z,12.80
2023-04-17T08:14:26.650Z,12.80
2023-04-17T08:16:54.759Z,12.80
2023-04-17T08:19:25.879Z,12.80
2023-04-17T08:22:02.457Z,12.80
2023-04-17T08:24:31.458Z,12.90
2023-04-17T08:26:59.600Z,12.90
2023-04-17T08:29:27.872Z,12.90
2023-04-17T08:32:10.907Z,12.90
2023-04-17T08:34:45.354Z,12.90
2023-04-17T08:37:13.430Z,12.90
2023-04-17T08:39:41.486Z,13.00
2023-04-17T08:42:16.727Z,13.00
2023-04-17T08:44:46.516Z,13.10
2023-04-17T08:47:15.906Z,13.10
2023-04-17T08:49:46.072Z,13.10
2023-04-17T08:52:16.814Z,13.10
2023-04-17T08:54:45.382Z,13.10
2023-04-17T08:57:13.472Z,13.20
2023-04-17T08:59:43.624Z,13.20
2023-04-17T09:02:11.898Z,13.20
2023-04-17T09:04:42.774Z,13.20
2023-04-17T09:07:15.411Z,13.20
2023-04-17T09:09:54.042Z,13.20
2023-04-17T09:12:23.267Z,13.20
2023-04-17T09:14:51.694Z,13.20
2023-04-17T09:17:41.781Z,13.30
2023-04-17T09:20:22.528Z,13.30
2023-04-17T09:23:00.888Z,13.30
2023-04-17T09:25:29.276Z,13.30
2023-04-17T09:28:11.629Z,13.30
2023-04-17T09:30:40.352Z,13.40
2023-04-17T09:33:12.626Z,13.40
2023-04-17T09:35:57.768Z,13.40
2023-04-17T09:38:40.097Z,13.50
2023-04-17T09:41:23.980Z,13.50
2023-04-17T09:43:54.919Z,13.60
2023-04-17T09:46:38.206Z,13.60
2023-04-17T09:49:11.859Z,13.70
2023-04-17T09:51:40.861Z,13.70
2023-04-17T09:54:11.956Z,13.70
2023-04-17T09:56:41.215Z,13.70
2023-04-17T09:59:09.821Z,13.70
2023-04-17T10:01:40.031Z,13.70
2023-04-17T10:04:08.487Z,13.80
2023-04-17T10:06:37.724Z,13.80
2023-04-17T10:09:05.956Z,13.90
2023-04-17T10:11:39.287Z,14.00
2023-04-17T10:14:13.043Z,14.00
2023-04-17T10:16:42.678Z,14.00
2023-04-17T10:19:31.036Z,14.00
2023-04-17T10:22:30.594Z,14.00
2023-04-17T10:25:22.163Z,14.00
2023-04-17T10:27:56.179Z,14.10
2023-04-17T10:30:26.297Z,14.10
2023-04-17T10:33:25.857Z,14.10
2023-04-17T10:35:54.607Z,14.10
2023-04-17T10:38:33.805Z,14.20
2023-04-17T10:41:09.282Z,14.20
2023-04-17T10:43:42.472Z,14.20
2023-04-17T10:46:12.608Z,14.30
2023-04-17T10:48:49.533Z,14.30
2023-04-17T10:51:42.916Z,14.30
2023-04-17T10:54:15.796Z,14.30
2023-04-17T10:56:48.380Z,14.30
2023-04-17T10:59:19.484Z,14.40
2023-04-17T11:02:04.888Z,14.40
2023-04-17T11:04:33.853Z,14.40
2023-04-17T11:07:02.342Z,14.40
2023-04-17T11:09:30.889Z,14.30
2023-04-17T11:12:01.388Z,14.30
2023-04-17T11:14:31.306Z,14.30
2023-04-17T11:16:59.516Z,14.30
2023-04-17T11:19:27.825Z,14.30
2023-04-17T11:21:58.948Z,14.30
2023-04-17T11:24:28.255Z,14.40
2023-04-17T11:26:57.784Z,14.40
2023-04-17T11:29:26.428Z,14.40
2023-04-17T11:31:57.570Z,14.40
2023-04-17T11:34:26.692Z,14.40
2023-04-17T11:37:07.827Z,14.40
2023-04-17T11:40:05.378Z,14.50
2023-04-17T11:43:08.968Z,14.50
2023-04-17T11:46:17.736Z,14.50
2023-04-17T11:49:05.707Z,14.50
2023-04-17T11:52:17.594Z,14.50
2023-04-17T11:55:41.907Z,14.50
2023-04-17T11:58:25.733Z,14.50
2023-04-17T12:04:36.889Z,14.60
2023-04-17T12:07:40.737Z,14.60
2023-04-17T12:11:00.291Z,14.50
2023-04-17T12:14:17.870Z,14.60
2023-04-17T12:20:43.373Z,14.70
2023-04-17T12:23:43.379Z,14.70
2023-04-17T12:30:17.062Z,14.70
2023-04-17T12:33:26.645Z,14.70
2023-04-17T12:53:52.603Z,14.90
2023-04-17T13:00:58.450Z,15.00
2023-04-17T13:03:39.326Z,15.00
2023-04-17T13:06:28.648Z,15.00
2023-04-17T13:15:01.350Z,15.00
2023-04-17T13:17:29.557Z,15.10
2023-04-17T13:19:57.713Z,15.10
2023-04-17T13:22:25.836Z,15.10
2023-04-17T13:24:53.871Z,15.20
2023-04-17T13:27:23.328Z,15.20
2023-04-17T13:29:51.415Z,15.20
2023-04-17T13:32:34.997Z,15.20
2023-04-17T13:35:05.118Z,15.20
2023-04-17T13:37:33.341Z,15.20
2023-04-17T13:40:03.651Z,15.20
2023-04-17T13:42:33.178Z,15.30
2023-04-17T13:45:01.374Z,15.30
2023-04-17T13:47:29.597Z,15.30
2023-04-17T13:49:57.709Z,15.30
2023-04-17T13:52:25.779Z,15.30
2023-04-17T13:54:53.801Z,15.40
2023-04-17T13:57:21.885Z,15.40
2023-04-17T13:59:51.364Z,15.40
2023-04-17T14:02:19.613Z,15.40
2023-04-17T14:04:48.037Z,15.40
2023-04-17T14:07:16.293Z,15.40
2023-04-17T14:09:44.353Z,15.50
2023-04-17T14:12:14.856Z,15.50
2023-04-17T14:14:42.934Z,15.50
2023-04-17T14:17:12.347Z,15.50
2023-04-17T14:19:40.563Z,15.50
2023-04-17T14:22:08.603Z,15.50
2023-04-17T14:24:36.647Z,15.60
2023-04-17T14:27:04.873Z,15.60
2023-04-17T14:29:32.910Z,15.60
2023-04-17T14:32:01.031Z,15.60
2023-04-17T14:34:30.481Z,15.70
2023-04-17T14:36:58.953Z,15.70
2023-04-17T14:39:28.908Z,15.70
2023-04-17T14:41:59.769Z,15.70
2023-04-17T14:44:29.989Z,15.80
2023-04-17T14:46:58.160Z,15.80
2023-04-17T14:49:26.344Z,15.80
2023-04-17T14:51:55.939Z,15.80
2023-04-17T14:54:23.997Z,15.80
2023-04-17T14:56:52.150Z,15.90
2023-04-17T14:59:20.328Z,15.90
2023-04-17T15:01:48.537Z,15.90
2023-04-17T15:04:16.975Z,15.90
2023-04-17T15:06:45.121Z,15.90
2023-04-17T15:09:14.732Z,15.90
2023-04-17T15:11:42.929Z,15.90
2023-04-17T15:14:12.535Z,15.90
2023-04-17T15:16:40.812Z,15.90
2023-04-17T15:19:09.043Z,16.00
2023-04-17T15:21:37.148Z,16.00
2023-04-17T15:24:05.837Z,16.00
2023-04-17T15:26:35.735Z,16.00
2023-04-17T15:29:04.016Z,16.00
2023-04-17T15:31:32.097Z,16.00
2023-04-17T15:34:00.197Z,16.00
2023-04-17T15:36:32.256Z,16.10
2023-04-17T15:39:00.828Z,16.10
2023-04-17T15:41:29.036Z,16.10
2023-04-17T15:43:58.555Z,16.10
2023-04-17T15:46:26.682Z,16.10
2023-04-17T15:49:07.740Z,16.10
2023-04-17T15:51:38.560Z,16.10
2023-04-17T15:54:08.319Z,16.10
2023-04-17T15:56:36.358Z,16.20
2023-04-17T15:59:05.792Z,16.20
2023-04-17T16:01:33.867Z,16.20
2023-04-17T16:04:02.144Z,16.20
2023-04-17T16:06:31.252Z,16.20
2023-04-17T16:08:59.408Z,16.30
2023-04-17T16:11:28.126Z,16.30
2023-04-17T16:13:56.224Z,16.30
2023-04-17T16:16:25.709Z,16.40
2023-04-17T16:18:54.050Z,16.50
2023-04-17T16:21:22.115Z,16.50
2023-04-17T16:23:50.177Z,16.60
2023-04-17T16:26:18.311Z,16.60
2023-04-17T16:28:46.769Z,16.70
2023-04-17T16:31:16.902Z,16.70
2023-04-17T16:33:46.862Z,16.70
2023-04-17T16:36:14.999Z,16.80
2023-04-17T16:38:43.076Z,16.80
2023-04-17T16:41:11.127Z,16.90
2023-04-17T16:43:39.233Z,16.90
2023-04-17T16:46:14.672Z,16.90
2023-04-17T16:48:50.995Z,16.90
2023-04-17T16:51:20.371Z,16.90
2023-04-17T16:53:48.532Z,16.80
2023-04-17T16:56:16.700Z,16.80
2023-04-17T16:58:44.769Z,16.70
2023-04-17T17:01:12.980Z,16.70
2023-04-17T17:03:43.308Z,16.60
2023-04-17T17:06:12.888Z,16.60
2023-04-17T17:08:43.199Z,16.50
2023-04-17T17:11:11.273Z,16.50
2023-04-17T17:13:39.308Z,16.40
2023-04-17T17:16:07.408Z,16.40
2023-04-17T17:18:35.478Z,16.40
2023-04-17T17:21:04.798Z,16.30
2023-04-17T17:23:34.244Z,16.30
2023-04-17T17:26:02.318Z,16.20
2023-04-17T17:28:30.543Z,16.20
2023-04-17T17:31:02.273Z,16.20
2023-04-17T17:33:32.192Z,16.10
2023-04-17T17:36:00.684Z,16.10
2023-04-17T17:38:30.690Z,16.10
2023-04-17T17:41:00.290Z,16.00
2023-04-17T17:43:29.102Z,16.00
2023-04-17T17:45:57.200Z,16.00
2023-04-17T17:48:25.804Z,16.00
2023-04-17T17:50:55.062Z,15.90
2023-04-17T17:53:26.268Z,15.90
2023-04-17T17:55:56.251Z,15.90
2023-04-17T17:58:25.751Z,15.80
2023-04-17T18:00:53.784Z,15.80
2023-04-17T18:03:22.218Z,15.80
2023-04-17T18:05:50.433Z,15.70
2023-04-17T18:08:18.518Z,15.70
2023-04-17T18:10:46.594Z,15.70
2023-04-17T18:13:14.665Z,15.60
2023-04-17T18:15:44.222Z,15.60
2023-04-17T18:18:12.296Z,15.50
2023-04-17T18:20:40.537Z,15.50
2023-04-17T18:23:08.752Z,15.50
2023-04-17T18:25:37.565Z,15.40
2023-04-17T18:28:06.355Z,15.40
2023-04-17T18:30:34.593Z,15.40
2023-04-17T18:33:04.088Z,15.30
2023-04-17T18:35:32.133Z,15.30
2023-04-17T18:38:00.200Z,15.30
2023-04-17T18:40:28.294Z,15.30
2023-04-17T18:42:56.359Z,15.30
2023-04-17T18:45:24.449Z,15.30
2023-04-17T18:47:52.508Z,15.20
2023-04-17T18:50:22.173Z,15.20
2023-04-17T18:52:51.264Z,15.20
2023-04-17T18:55:19.757Z,15.20
2023-04-17T18:57:47.840Z,15.20
2023-04-17T19:00:16.290Z,15.20
2023-04-17T19:02:44.502Z,15.20
2023-04-17T19:05:12.727Z,15.20
2023-04-17T19:07:42.165Z,15.10
2023-04-17T19:10:11.202Z,15.10
2023-04-17T19:12:39.324Z,15.10
2023-04-17T19:15:08.796Z,15.10
2023-04-17T19:17:36.883Z,15.10
2023-04-17T19:20:06.054Z,15.10
2023-04-17T19:22:34.126Z,15.00
2023-04-17T19:25:03.613Z,15.00
2023-04-17T19:27:31.640Z,15.00
2023-04-17T19:29:59.849Z,15.00
2023-04-17T19:32:29.257Z,15.00
2023-04-17T19:34:58.498Z,14.90
2023-04-17T19:37:26.664Z,14.90
2023-04-17T19:39:56.698Z,14.80
2023-04-17T19:42:27.122Z,14.80
2023-04-17T19:44:55.222Z,14.80
2023-04-17T19:47:23.974Z,14.70
2023-04-17T19:49:52.125Z,14.70
2023-04-17T19:52:20.180Z,14.70
2023-04-17T19:54:48.257Z,14.60
2023-04-17T19:57:16.435Z,14.60
2023-04-17T19:59:45.933Z,14.60
2023-04-17T20:02:14.080Z,14.50
2023-04-17T20:04:42.245Z,14.50
2023-04-17T20:07:10.432Z,14.40
2023-04-17T20:09:38.515Z,14.40
2023-04-17T20:12:07.089Z,14.30
2023-04-17T20:14:35.137Z,14.30
2023-04-17T20:17:05.685Z,14.20
2023-04-17T20:19:33.789Z,14.10
2023-04-17T20:22:01.831Z,14.10
2023-04-17T20:24:30.008Z,14.00
2023-04-17T20:26:58.625Z,14.00
2023-04-17T20:29:27.133Z,13.90
2023-04-17T20:31:55.246Z,13.90
2023-04-17T20:34:26.498Z,13.90
2023-04-17T20:36:54.565Z,13.80
2023-04-17T20:39:22.633Z,13.80
2023-04-17T20:41:50.710Z,13.80
2023-04-17T20:44:19.667Z,13.70
2023-04-17T20:46:47.751Z,13.70
2023-04-17T20:49:15.852Z,13.60
2023-04-17T20:51:45.472Z,13.60
2023-04-17T20:54:13.781Z,13.60
2023-04-17T20:56:42.002Z,13.50
2023-04-17T20:59:10.096Z,13.50
2023-04-17T21:01:38.218Z,13.40
2023-04-17T21:04:06.464Z,13.40
2023-04-17T21:06:34.558Z,13.40
2023-04-17T21:09:04.047Z,13.30
2023-04-17T21:11:32.145Z,13.30
2023-04-17T21:14:00.428Z,13.30
2023-04-17T21:16:29.638Z,13.20
2023-04-17T21:18:57.712Z,13.20
2023-04-17T21:21:26.206Z,13.10
2023-04-17T21:23:54.332Z,13.10
2023-04-17T21:26:23.738Z,13.00
2023-04-17T21:28:51.840Z,13.00
2023-04-17T21:31:19.906Z,13.00
2023-04-17T21:33:47.994Z,12.90
2023-04-17T21:36:16.058Z,12.90
2023-04-17T21:38:44.087Z,12.90
2023-04-17T21:41:12.135Z,12.90
2023-04-17T21:43:41.612Z,12.90
2023-04-17T21:46:11.296Z,12.80
2023-04-17T21:48:41.321Z,12.80
2023-04-17T21:51:09.389Z,12.80
2023-04-17T21:53:38.139Z,12.80
2023-04-17T21:56:07.233Z,12.80
2023-04-17T21:58:35.377Z,12.80
2023-04-17T22:01:04.930Z,12.80
2023-04-17T22:03:33.270Z,12.80
2023-04-17T22:06:01.457Z,12.80
2023-04-17T22:08:29.570Z,12.80
2023-04-17T22:10:57.635Z,12.80
2023-04-17T22:13:25.670Z,12.80
2023-04-17T22:15:53.959Z,12.70
2023-04-17T22:18:23.963Z,12.70
2023-04-17T22:20:52.031Z,12.70
2023-04-17T22:23:20.114Z,12.70
2023-04-17T22:25:48.185Z,12.60
2023-04-17T22:28:16.391Z,12.60
2023-04-17T22:30:44.535Z,12.60
2023-04-17T22:33:12.583Z,12.50
2023-04-17T22:35:41.989Z,12.50
2023-04-17T22:38:10.037Z,12.50
2023-04-17T22:40:38.140Z,12.50
2023-04-17T22:43:06.207Z,12.40
2023-04-17T22:45:34.334Z,12.40
2023-04-17T22:48:02.508Z,12.40
2023-04-17T22:50:32.276Z,12.30
2023-04-17T22:53:01.680Z,12.30
2023-04-17T22:55:29.772Z,12.30
2023-04-17T22:57:57.826Z,12.30
2023-04-17T23:00:26.041Z,12.40
2023-04-17T23:02:54.286Z,12.40
2023-04-17T23:05:22.494Z,12.40
2023-04-17T23:07:50.637Z,12.40
2023-04-17T23:10:20.228Z,12.40
2023-04-17T23:12:48.255Z,12.40
2023-04-17T23:15:16.312Z,12.40
2023-04-17T23:17:44.364Z,12.40
2023-04-17T23:20:13.596Z,12.40
2023-04-17T23:22:41.671Z,12.50
2023-04-17T23:25:10.926Z,12.50
2023-04-17T23:27:40.393Z,12.50
2023-04-17T23:30:09.563Z,12.50
2023-04-17T23:32:37.708Z,12.50
2023-04-17T23:35:06.621Z,12.50
2023-04-17T23:37:34.676Z,12.50
2023-04-17T23:40:02.720Z,12.50
2023-04-17T23:42:30.899Z,12.50
2023-04-17T23:45:00.378Z,12.50
2023-04-17T23:47:28.468Z,12.50
2023-04-17T23:49:56.534Z,12.50
2023-04-17T23:52:24.564Z,12.50
2023-04-17T23:54:52.648Z,12.50
2023-04-17T23:57:20.666Z,12.50
2023-04-17T23:59:48.690Z,12.50
